Time;durP1;ratioP1;P1;durP2;ratioP2;P2;SDS_P1;SDS_P2;PMS_P1;PMS_P2;Temp;Humidity;BMP_temperature;BMP_pressure;BME280_temperature;BME280_humidity;BME280_pressure;Samples;Min_cycle;Max_cycle;Signal;HPM_P1;HPM_P2
2022/03/13 00:00:10;;;;;;;21.13;15.88;;;6.50;69.30;;;;;;5084117;28;20036;-72
2022/03/13 00:02:36;;;;;;;23.80;16.65;;;6.50;69.20;;;;;;5073491;27;20539;-71
2022/03/13 00:05:02;;;;;;;21.35;15.52;;;6.40;69.30;;;;;;5063784;28;20397;-70
2022/03/13 00:07:30;;;;;;;22.60;16.40;;;6.40;69.60;;;;;;5042643;28;20036;-71
2022/03/13 00:09:56;;;;;;;22.55;15.73;;;6.40;69.80;;;;;;5046753;28;20044;-70
2022/03/13 00:12:31;;;;;;;24.43;17.47;;;6.40;69.70;;;;;;5048456;28;20048;-70
2022/03/13 00:14:58;;;;;;;21.98;15.75;;;6.40;69.60;;;;;;5032831;28;20048;-70
2022/03/13 00:17:30;;;;;;;23.30;16.33;;;6.40;69.60;;;;;;5059528;28;20044;-70
2022/03/13 00:20:01;;;;;;;23.92;15.88;;;6.40;69.80;;;;;;5098871;28;20126;-70
2022/03/13 00:22:28;;;;;;;27.80;16.75;;;6.40;69.40;;;;;;5049518;28;20539;-70
2022/03/13 00:24:54;;;;;;;21.20;16.00;;;6.40;69.70;;;;;;5050194;28;20401;-70
2022/03/13 00:27:20;;;;;;;23.52;15.93;;;6.40;69.90;;;;;;5081221;28;20485;-70
2022/03/13 00:29:46;;;;;;;23.80;17.37;;;6.40;69.70;;;;;;5096492;28;20044;-70
2022/03/13 00:32:12;;;;;;;23.63;16.90;;;6.40;69.70;;;;;;5048583;28;20658;-70
2022/03/13 00:34:38;;;;;;;25.75;17.58;;;6.40;69.50;;;;;;5063737;28;20080;-70
2022/03/13 00:37:04;;;;;;;24.60;16.48;;;6.40;69.50;;;;;;5031455;28;20230;-70
2022/03/13 00:39:30;;;;;;;23.00;16.67;;;6.40;69.60;;;;;;5064526;28;20080;-70
2022/03/13 00:41:55;;;;;;;25.45;17.40;;;6.40;69.80;;;;;;5047869;28;20036;-70
2022/03/13 00:44:22;;;;;;;24.10;15.63;;;6.30;69.80;;;;;;5079719;28;20045;-70
2022/03/13 00:46:47;;;;;;;23.77;16.50;;;6.30;69.90;;;;;;5063565;28;20045;-70
2022/03/13 00:49:13;;;;;;;23.30;16.73;;;6.30;70.00;;;;;;5064162;28;20044;-70
2022/03/13 00:51:39;;;;;;;22.87;15.90;;;6.30;70.10;;;;;;5064851;28;20044;-70
2022/03/13 00:54:05;;;;;;;24.67;17.30;;;6.30;70.00;;;;;;5055781;28;20416;-70
2022/03/13 00:56:31;;;;;;;23.63;16.93;;;6.40;70.00;;;;;;5047202;28;20045;-70
2022/03/13 00:58:58;;;;;;;23.50;16.13;;;6.40;69.80;;;;;;5080695;28;20695;-70
2022/03/13 01:01:24;;;;;;;24.60;17.08;;;6.30;70.20;;;;;;5070682;28;20044;-70
2022/03/13 01:03:53;;;;;;;26.63;16.03;;;6.40;70.10;;;;;;5101293;28;20044;-71
2022/03/13 01:06:21;;;;;;;24.90;16.55;;;6.30;69.80;;;;;;5118450;28;20471;-71
2022/03/13 01:08:48;;;;;;;26.92;16.98;;;6.30;69.90;;;;;;5117730;27;20507;-71
2022/03/13 01:11:18;;;;;;;24.05;17.30;;;6.30;70.20;;;;;;5085420;28;20071;-70
2022/03/13 01:13:44;;;;;;;25.42;17.20;;;6.20;70.10;;;;;;5084405;28;20157;-70
2022/03/13 01:16:19;;;;;;;25.45;17.10;;;6.20;70.50;;;;;;5101543;28;20195;-70
2022/03/13 01:18:56;;;;;;;22.65;16.45;;;6.20;70.40;;;;;;5077935;28;20040;-70
2022/03/13 01:21:23;;;;;;;26.73;16.42;;;6.20;70.50;;;;;;5117745;27;20036;-70
2022/03/13 01:23:57;;;;;;;22.08;15.15;;;6.30;70.90;;;;;;5101733;28;20098;-70
2022/03/13 01:26:23;;;;;;;24.20;15.30;;;6.40;70.40;;;;;;5100977;28;20075;-70
2022/03/13 01:28:50;;;;;;;26.17;16.40;;;6.50;70.50;;;;;;5087165;28;20040;-70
2022/03/13 01:31:19;;;;;;;23.17;16.02;;;6.60;70.10;;;;;;5122116;27;20076;-70
2022/03/13 01:33:45;;;;;;;23.42;15.57;;;6.70;69.90;;;;;;5067454;28;20531;-70
2022/03/13 01:36:13;;;;;;;23.10;15.77;;;6.80;69.80;;;;;;5105834;27;20071;-70
2022/03/13 01:38:39;;;;;;;20.42;15.02;;;6.90;69.40;;;;;;5071428;28;20043;-70
2022/03/13 01:41:05;;;;;;;20.98;15.10;;;7.00;69.10;;;;;;5088050;28;20038;-70
2022/03/13 01:43:31;;;;;;;22.25;14.95;;;7.00;69.00;;;;;;5071692;28;20122;-70
2022/03/13 01:46:01;;;;;;;21.20;14.40;;;7.10;68.90;;;;;;5070140;28;20522;-70
2022/03/13 01:48:28;;;;;;;22.58;15.05;;;7.10;68.80;;;;;;5103542;28;20044;-70
2022/03/13 01:50:54;;;;;;;23.73;15.68;;;7.20;68.60;;;;;;5122199;27;20039;-70
2022/03/13 01:53:21;;;;;;;21.83;14.67;;;7.20;68.50;;;;;;5121791;27;20032;-70
2022/03/13 01:55:55;;;;;;;22.75;14.85;;;7.20;68.30;;;;;;5121566;27;20040;-70
2022/03/13 01:58:21;;;;;;;23.45;15.73;;;7.30;68.20;;;;;;5121208;27;20040;-70
2022/03/13 02:00:47;;;;;;;23.30;15.40;;;7.20;68.20;;;;;;5088024;28;20036;-70
2022/03/13 02:03:15;;;;;;;21.33;15.10;;;7.20;68.20;;;;;;5068753;28;20131;-70
2022/03/13 02:05:41;;;;;;;22.15;15.23;;;7.20;68.20;;;;;;5105512;27;20040;-70
2022/03/13 02:08:18;;;;;;;25.27;16.45;;;7.10;68.40;;;;;;5120892;27;20036;-70
2022/03/13 02:10:44;;;;;;;22.42;15.98;;;7.10;68.50;;;;;;5105114;27;20040;-70
2022/03/13 02:13:13;;;;;;;23.15;15.02;;;7.10;68.60;;;;;;5104962;28;20036;-70
2022/03/13 02:15:39;;;;;;;22.48;15.57;;;7.00;68.50;;;;;;5120646;27;20123;-70
2022/03/13 02:18:06;;;;;;;23.85;16.52;;;6.90;68.80;;;;;;5103942;28;20040;-70
2022/03/13 02:20:43;;;;;;;23.77;15.73;;;6.90;69.20;;;;;;5082578;28;20395;-70
2022/03/13 02:23:25;;;;;;;24.67;16.13;;;6.90;69.20;;;;;;5121570;27;20097;-70
2022/03/13 02:25:55;;;;;;;23.10;16.20;;;6.80;69.50;;;;;;5119837;27;20179;-70
2022/03/13 02:28:23;;;;;;;23.65;16.45;;;6.70;69.30;;;;;;5087030;28;20043;-70
2022/03/13 02:30:50;;;;;;;22.60;16.45;;;6.70;69.40;;;;;;5088460;28;20043;-71
2022/03/13 02:33:20;;;;;;;22.83;16.50;;;6.70;69.80;;;;;;5085357;28;20095;-71
2022/03/13 02:35:56;;;;;;;24.33;15.48;;;6.60;69.80;;;;;;5116048;27;20044;-71
2022/03/13 02:38:23;;;;;;;25.10;16.55;;;6.60;70.00;;;;;;5086608;28;20044;-71
2022/03/13 02:40:49;;;;;;;23.75;16.83;;;6.60;70.10;;;;;;5086350;28;20063;-70
2022/03/13 02:43:17;;;;;;;22.27;16.57;;;6.60;70.10;;;;;;5083273;28;20354;-70
2022/03/13 02:45:42;;;;;;;21.38;15.20;;;6.60;70.20;;;;;;5086077;28;20040;-70
2022/03/13 02:48:09;;;;;;;25.50;16.57;;;6.60;70.20;;;;;;5086631;28;20507;-70
2022/03/13 02:50:36;;;;;;;23.48;15.93;;;6.60;70.00;;;;;;5102156;27;20289;-70
2022/03/13 02:53:03;;;;;;;22.52;15.35;;;6.60;70.10;;;;;;5053334;28;20085;-70
2022/03/13 02:55:29;;;;;;;22.30;15.00;;;6.60;69.90;;;;;;5085970;28;20056;-70
2022/03/13 02:57:55;;;;;;;23.48;16.55;;;6.70;69.80;;;;;;5069006;28;20044;-70
2022/03/13 03:00:37;;;;;;;21.20;14.97;;;6.70;69.70;;;;;;5053175;28;20033;-70
2022/03/13 03:03:03;;;;;;;21.77;14.70;;;6.70;69.80;;;;;;5083756;28;20167;-70
2022/03/13 03:05:31;;;;;;;20.83;15.03;;;6.80;69.60;;;;;;5103171;28;20123;-70
2022/03/13 03:07:57;;;;;;;21.52;14.60;;;6.80;69.60;;;;;;5119359;27;20059;-71
2022/03/13 03:10:23;;;;;;;21.97;15.10;;;6.80;69.40;;;;;;5103733;28;20052;-71
2022/03/13 03:12:48;;;;;;;23.50;15.17;;;6.90;69.30;;;;;;5069150;28;20036;-71
2022/03/13 03:15:18;;;;;;;20.30;15.00;;;6.90;69.30;;;;;;5086488;28;20039;-71
2022/03/13 03:17:44;;;;;;;20.85;15.65;;;6.90;69.10;;;;;;5068189;28;20048;-71
2022/03/13 03:20:11;;;;;;;25.75;16.25;;;6.90;69.10;;;;;;5069648;28;20504;-70
2022/03/13 03:22:37;;;;;;;24.50;16.45;;;6.90;69.10;;;;;;5086208;28;20043;-70
2022/03/13 03:25:04;;;;;;;22.93;15.90;;;6.90;69.20;;;;;;5105966;27;20408;-70
2022/03/13 03:27:31;;;;;;;22.05;15.57;;;6.90;69.20;;;;;;5086962;28;20051;-70
2022/03/13 03:29:58;;;;;;;22.63;15.63;;;6.90;69.00;;;;;;5068593;28;20130;-71
2022/03/13 03:32:24;;;;;;;22.00;14.95;;;6.90;69.20;;;;;;5082955;28;20067;-71
2022/03/13 03:34:50;;;;;;;23.70;15.60;;;6.90;69.00;;;;;;5082439;28;20043;-70
2022/03/13 03:37:16;;;;;;;23.10;15.67;;;6.90;69.10;;;;;;5068335;28;20048;-70
2022/03/13 03:39:42;;;;;;;22.33;15.57;;;6.90;69.20;;;;;;5051733;28;20032;-71
2022/03/13 03:42:08;;;;;;;21.00;15.00;;;6.90;69.10;;;;;;5084474;28;20036;-71
2022/03/13 03:44:33;;;;;;;21.03;15.20;;;6.90;69.10;;;;;;5085602;28;20072;-71
2022/03/13 03:46:59;;;;;;;21.33;15.13;;;6.90;69.00;;;;;;5081512;28;20647;-71
2022/03/13 03:49:25;;;;;;;22.40;15.07;;;6.90;69.30;;;;;;5100887;28;20070;-71
2022/03/13 03:51:52;;;;;;;23.30;15.30;;;6.90;69.20;;;;;;5067138;28;20043;-70
2022/03/13 03:54:18;;;;;;;22.20;15.18;;;6.90;69.30;;;;;;5102378;28;20089;-70
2022/03/13 03:56:44;;;;;;;21.65;14.82;;;6.80;69.20;;;;;;5069047;28;20051;-70
2022/03/13 03:59:10;;;;;;;20.03;14.57;;;6.90;69.10;;;;;;5102531;28;20056;-70
2022/03/13 04:01:42;;;;;;;20.90;14.83;;;6.90;69.40;;;;;;5088392;28;20058;-70
2022/03/13 04:04:09;;;;;;;18.48;14.35;;;6.90;69.20;;;;;;5093225;28;20500;-70
2022/03/13 04:06:40;;;;;;;21.98;14.55;;;6.80;69.30;;;;;;5054410;28;20177;-70
2022/03/13 04:09:10;;;;;;;22.13;14.02;;;6.80;69.30;;;;;;5105928;28;20487;-70
2022/03/13 04:11:37;;;;;;;20.27;14.27;;;6.80;69.30;;;;;;5123029;27;20054;-70
2022/03/13 04:14:03;;;;;;;21.50;14.10;;;6.80;69.10;;;;;;5095231;28;20071;-70
2022/03/13 04:16:29;;;;;;;19.77;13.98;;;6.80;69.10;;;;;;5088368;28;20051;-70
2022/03/13 04:18:55;;;;;;;21.30;14.63;;;6.80;69.10;;;;;;5079844;28;20606;-70
2022/03/13 04:21:24;;;;;;;20.57;14.67;;;6.80;69.20;;;;;;5076095;28;20039;-70
2022/03/13 04:23:51;;;;;;;22.75;14.27;;;6.80;69.20;;;;;;5103223;28;20031;-70
2022/03/13 04:26:16;;;;;;;21.38;14.93;;;6.70;69.20;;;;;;5092558;28;20044;-70
2022/03/13 04:28:42;;;;;;;20.00;14.53;;;6.80;69.30;;;;;;5089853;28;20036;-70
2022/03/13 04:31:08;;;;;;;21.17;13.90;;;6.80;69.40;;;;;;5123067;28;20058;-70
2022/03/13 04:33:36;;;;;;;20.85;15.25;;;6.80;69.50;;;;;;5070952;28;20059;-70
2022/03/13 04:36:05;;;;;;;22.55;14.65;;;6.70;69.20;;;;;;5102304;28;20492;-70
2022/03/13 04:38:30;;;;;;;19.98;14.50;;;6.70;69.50;;;;;;5121833;27;20028;-70
2022/03/13 04:40:58;;;;;;;21.93;15.40;;;6.70;69.60;;;;;;5095569;28;20097;-70
2022/03/13 04:43:24;;;;;;;22.58;15.88;;;6.70;69.60;;;;;;5083399;28;20118;-70
2022/03/13 04:45:51;;;;;;;21.50;15.35;;;6.70;69.60;;;;;;5103802;28;20403;-70
2022/03/13 04:48:17;;;;;;;20.88;14.88;;;6.60;69.80;;;;;;5073113;28;20059;-70
2022/03/13 04:50:44;;;;;;;21.33;15.70;;;6.60;70.00;;;;;;5071772;28;20408;-70
2022/03/13 04:53:11;;;;;;;24.98;15.57;;;6.50;70.20;;;;;;5091278;28;20051;-70
2022/03/13 04:55:37;;;;;;;23.02;15.60;;;6.50;70.10;;;;;;5089684;28;20126;-70
2022/03/13 04:58:02;;;;;;;20.37;15.13;;;6.50;70.30;;;;;;5078454;28;20135;-70
2022/03/13 05:00:28;;;;;;;23.80;16.33;;;6.50;70.40;;;;;;5088003;28;20042;-70
2022/03/13 05:02:55;;;;;;;23.77;15.17;;;6.40;70.60;;;;;;5107551;28;20043;-70
2022/03/13 05:05:22;;;;;;;23.27;16.27;;;6.40;70.50;;;;;;5109089;28;20055;-70
2022/03/13 05:07:49;;;;;;;22.70;15.52;;;6.40;70.20;;;;;;5125795;27;20087;-70
2022/03/13 05:10:19;;;;;;;22.45;15.95;;;6.40;70.20;;;;;;5126988;27;20050;-70
2022/03/13 05:12:47;;;;;;;22.67;15.88;;;6.40;70.20;;;;;;5099850;28;20050;-70
2022/03/13 05:15:13;;;;;;;22.52;15.77;;;6.50;70.20;;;;;;5091931;28;20040;-70
2022/03/13 05:17:38;;;;;;;22.40;16.08;;;6.50;70.00;;;;;;5096341;28;20036;-70
2022/03/13 05:20:05;;;;;;;22.53;15.50;;;6.50;69.90;;;;;;5092415;28;20039;-70
2022/03/13 05:22:31;;;;;;;22.95;15.95;;;6.50;69.60;;;;;;5091774;28;20039;-70
2022/03/13 05:24:57;;;;;;;23.87;15.13;;;6.60;69.50;;;;;;5093885;28;20535;-70
2022/03/13 05:27:23;;;;;;;26.27;16.60;;;6.60;69.30;;;;;;5082621;28;20295;-70
2022/03/13 05:29:49;;;;;;;20.52;15.45;;;6.60;69.10;;;;;;5108106;28;20046;-70
2022/03/13 05:32:15;;;;;;;22.33;15.55;;;6.60;68.90;;;;;;5091732;28;20093;-70
2022/03/13 05:34:42;;;;;;;22.17;16.23;;;6.60;68.80;;;;;;5092244;28;20043;-70
2022/03/13 05:37:08;;;;;;;22.90;15.52;;;6.60;68.70;;;;;;5080839;28;20524;-70
2022/03/13 05:39:34;;;;;;;22.95;15.68;;;6.70;68.50;;;;;;5077484;27;20047;-70
2022/03/13 05:42:00;;;;;;;28.27;16.17;;;6.70;68.50;;;;;;5107282;28;20031;-70
2022/03/13 05:44:26;;;;;;;23.67;16.25;;;6.70;68.30;;;;;;5076790;28;20044;-71
2022/03/13 05:46:52;;;;;;;22.27;16.33;;;6.70;68.20;;;;;;5091360;28;20047;-71
2022/03/13 05:49:17;;;;;;;23.27;16.53;;;6.70;68.30;;;;;;5058718;28;20518;-71
2022/03/13 05:51:43;;;;;;;25.17;16.53;;;6.70;68.20;;;;;;5126169;27;20071;-71
2022/03/13 05:54:09;;;;;;;22.83;16.13;;;6.70;68.30;;;;;;5107538;28;20046;-70
2022/03/13 05:56:36;;;;;;;21.92;15.60;;;6.70;68.30;;;;;;5105706;27;20039;-70
2022/03/13 05:59:02;;;;;;;23.25;16.38;;;6.60;68.30;;;;;;5107235;28;20088;-71
2022/03/13 06:01:27;;;;;;;22.87;15.90;;;6.60;68.50;;;;;;5119862;27;20035;-71
2022/03/13 06:03:53;;;;;;;24.77;16.07;;;6.60;68.60;;;;;;5099151;28;20055;-71
2022/03/13 06:06:20;;;;;;;26.07;17.47;;;6.60;68.60;;;;;;5082540;28;20062;-71
2022/03/13 06:08:46;;;;;;;25.92;16.65;;;6.60;68.50;;;;;;5123551;27;20044;-71
2022/03/13 06:11:12;;;;;;;23.00;16.88;;;6.60;68.60;;;;;;5091185;28;20040;-71
2022/03/13 06:13:38;;;;;;;24.55;16.27;;;6.60;68.40;;;;;;5106709;28;20039;-71
2022/03/13 06:16:04;;;;;;;25.23;17.30;;;6.70;68.40;;;;;;5093674;28;20047;-71
2022/03/13 06:18:32;;;;;;;22.30;17.17;;;6.70;68.30;;;;;;5095436;28;20061;-71
2022/03/13 06:20:58;;;;;;;23.33;16.83;;;6.70;68.20;;;;;;5083361;28;20043;-71
2022/03/13 06:23:24;;;;;;;23.43;16.37;;;6.70;68.10;;;;;;5074396;28;20362;-71
2022/03/13 06:25:50;;;;;;;22.33;16.85;;;6.70;68.10;;;;;;5107363;28;20359;-71
2022/03/13 06:28:16;;;;;;;25.33;16.38;;;6.70;68.30;;;;;;5123917;27;20496;-71
2022/03/13 06:30:42;;;;;;;26.48;16.25;;;6.70;68.30;;;;;;5074808;28;20068;-71
2022/03/13 06:33:08;;;;;;;26.30;17.40;;;6.70;68.20;;;;;;5091773;28;20039;-71
2022/03/13 06:35:34;;;;;;;22.03;16.57;;;6.70;68.20;;;;;;5084941;28;20047;-71
2022/03/13 06:37:59;;;;;;;21.53;16.07;;;6.70;68.20;;;;;;5107071;28;20663;-71
2022/03/13 06:40:26;;;;;;;22.73;16.33;;;6.70;68.20;;;;;;5098058;28;20130;-71
2022/03/13 06:42:53;;;;;;;22.50;15.93;;;6.70;68.10;;;;;;5106935;28;20071;-71
2022/03/13 06:45:20;;;;;;;25.52;16.02;;;6.70;67.80;;;;;;5087109;28;20036;-71
2022/03/13 06:47:49;;;;;;;24.63;16.33;;;6.70;67.60;;;;;;5096387;28;20562;-71
2022/03/13 06:50:17;;;;;;;22.05;15.23;;;6.70;67.40;;;;;;5090698;28;20047;-71
2022/03/13 06:52:48;;;;;;;22.70;15.48;;;6.70;67.20;;;;;;5106293;28;20071;-71
2022/03/13 06:55:14;;;;;;;21.40;14.85;;;6.70;66.90;;;;;;5089893;28;20047;-71
2022/03/13 06:57:41;;;;;;;21.40;15.45;;;6.80;66.70;;;;;;5079998;28;20612;-71
2022/03/13 07:00:07;;;;;;;20.75;15.25;;;6.80;66.60;;;;;;5063688;28;20031;-71
2022/03/13 07:02:33;;;;;;;21.27;14.70;;;6.80;66.60;;;;;;5079039;28;20384;-71
2022/03/13 07:04:59;;;;;;;24.97;15.30;;;6.90;66.10;;;;;;5076130;28;20069;-71
2022/03/13 07:07:25;;;;;;;22.97;15.27;;;6.90;65.80;;;;;;5084256;28;20099;-71
2022/03/13 07:09:52;;;;;;;23.40;15.48;;;7.00;65.70;;;;;;5090415;28;20043;-71
2022/03/13 07:12:18;;;;;;;20.73;14.20;;;7.00;65.30;;;;;;5084910;28;20700;-71
2022/03/13 07:14:47;;;;;;;20.98;15.07;;;7.10;65.20;;;;;;5079829;28;20105;-71
2022/03/13 07:17:13;;;;;;;21.00;14.60;;;7.10;64.80;;;;;;5077298;28;20695;-71
2022/03/13 07:19:43;;;;;;;19.38;14.13;;;7.20;64.50;;;;;;5083344;28;20039;-71
2022/03/13 07:22:12;;;;;;;21.67;15.32;;;7.20;64.30;;;;;;5076310;28;20059;-71
2022/03/13 07:24:38;;;;;;;22.20;15.05;;;7.30;64.10;;;;;;5105890;27;20054;-71
2022/03/13 07:27:04;;;;;;;21.30;15.48;;;7.30;64.00;;;;;;5106587;28;20622;-71
2022/03/13 07:29:30;;;;;;;21.73;14.80;;;7.40;63.70;;;;;;5107104;27;20090;-71
2022/03/13 07:31:56;;;;;;;19.37;13.97;;;7.40;63.50;;;;;;5106391;28;20126;-71
2022/03/13 07:34:27;;;;;;;21.38;14.52;;;7.40;63.70;;;;;;5079324;28;20040;-71
2022/03/13 07:36:54;;;;;;;21.13;14.52;;;7.40;63.70;;;;;;5100008;28;20499;-71
2022/03/13 07:39:21;;;;;;;22.75;14.85;;;7.40;63.70;;;;;;5097379;28;20039;-71
2022/03/13 07:41:50;;;;;;;19.30;13.73;;;7.40;63.60;;;;;;5060180;28;20040;-71
2022/03/13 07:44:16;;;;;;;20.20;14.45;;;7.40;63.40;;;;;;5084132;28;20043;-71
2022/03/13 07:46:42;;;;;;;21.07;14.90;;;7.40;63.40;;;;;;5078264;28;20081;-71
2022/03/13 07:49:08;;;;;;;21.30;14.87;;;7.40;63.40;;;;;;5092520;28;20036;-71
2022/03/13 07:51:34;;;;;;;20.03;14.47;;;7.40;63.40;;;;;;5104632;28;20453;-71
2022/03/13 07:54:01;;;;;;;21.98;14.55;;;7.40;63.50;;;;;;5091617;28;20500;-71
2022/03/13 07:56:27;;;;;;;21.17;14.70;;;7.40;63.50;;;;;;5077064;28;20047;-71
2022/03/13 07:58:53;;;;;;;19.50;13.60;;;7.40;63.30;;;;;;5077297;28;20781;-71
2022/03/13 08:01:19;;;;;;;18.53;14.13;;;7.50;63.30;;;;;;5094782;28;20043;-71
2022/03/13 08:03:45;;;;;;;21.13;14.47;;;7.50;62.90;;;;;;5088594;28;20039;-71
2022/03/13 08:06:12;;;;;;;19.70;13.48;;;7.50;62.90;;;;;;5123041;27;20036;-71
2022/03/13 08:08:37;;;;;;;19.52;13.63;;;7.60;62.60;;;;;;5119391;27;20130;-71
2022/03/13 08:11:03;;;;;;;19.90;13.50;;;7.60;62.30;;;;;;5106352;28;20135;-71
2022/03/13 08:13:29;;;;;;;18.47;13.97;;;7.60;62.30;;;;;;5084214;28;20104;-70
2022/03/13 08:15:55;;;;;;;19.13;13.83;;;7.60;61.90;;;;;;5091994;28;20361;-72
2022/03/13 08:18:21;;;;;;;19.30;13.77;;;7.70;61.70;;;;;;5089837;28;20564;-72
2022/03/13 08:20:47;;;;;;;20.03;14.57;;;7.70;61.70;;;;;;5089201;28;20285;-71
2022/03/13 08:23:13;;;;;;;20.67;14.68;;;7.80;61.80;;;;;;5072866;28;20039;-71
2022/03/13 08:25:39;;;;;;;18.93;13.47;;;7.80;61.90;;;;;;5107617;28;20381;-72
2022/03/13 08:28:06;;;;;;;21.03;13.60;;;8.00;61.70;;;;;;5072938;28;20048;-72
2022/03/13 08:30:33;;;;;;;19.92;13.75;;;8.10;61.00;;;;;;5090746;28;20089;-71
2022/03/13 08:32:59;;;;;;;18.73;13.95;;;8.20;60.70;;;;;;5088757;28;20040;-71
2022/03/13 08:35:24;;;;;;;18.93;13.17;;;8.30;60.50;;;;;;5085902;28;20039;-71
2022/03/13 08:37:52;;;;;;;21.33;13.93;;;8.50;60.00;;;;;;5090650;28;20050;-72
2022/03/13 08:40:19;;;;;;;20.08;13.75;;;8.60;59.90;;;;;;5127655;27;20119;-72
2022/03/13 08:42:44;;;;;;;19.60;13.70;;;8.90;59.40;;;;;;5093042;28;20418;-72
2022/03/13 08:45:11;;;;;;;18.57;13.27;;;9.10;58.90;;;;;;5072729;27;20039;-72
2022/03/13 08:47:38;;;;;;;19.17;13.38;;;9.30;58.20;;;;;;5125191;27;20040;-72
2022/03/13 08:50:05;;;;;;;18.92;13.88;;;9.50;58.30;;;;;;5107358;28;20524;-72
2022/03/13 08:52:31;;;;;;;18.50;13.55;;;9.60;57.80;;;;;;5092985;27;20131;-72
2022/03/13 08:54:56;;;;;;;18.50;13.57;;;9.60;57.20;;;;;;5107885;27;20130;-71
2022/03/13 08:57:22;;;;;;;17.33;13.43;;;9.70;56.70;;;;;;5108978;27;20042;-72
2022/03/13 08:59:48;;;;;;;17.60;13.13;;;9.70;56.50;;;;;;5091872;28;20036;-72
2022/03/13 09:02:14;;;;;;;18.40;12.60;;;9.70;56.10;;;;;;5089987;28;20092;-72
2022/03/13 09:04:41;;;;;;;18.83;13.30;;;9.70;56.20;;;;;;5077039;28;20718;-72
2022/03/13 09:07:07;;;;;;;20.00;13.50;;;9.70;56.20;;;;;;5076377;28;20114;-72
2022/03/13 09:09:32;;;;;;;19.30;13.50;;;9.70;56.20;;;;;;5077554;28;20039;-72
2022/03/13 09:11:59;;;;;;;18.70;13.70;;;9.70;56.70;;;;;;5097534;27;20039;-72
2022/03/13 09:14:26;;;;;;;20.13;13.38;;;9.80;56.90;;;;;;5090464;28;20034;-72
2022/03/13 09:16:52;;;;;;;16.55;12.98;;;9.90;56.10;;;;;;5087729;28;20027;-72
2022/03/13 09:19:19;;;;;;;21.03;13.47;;;10.00;55.60;;;;;;5091275;28;20042;-72
2022/03/13 09:21:45;;;;;;;18.40;13.23;;;10.00;54.90;;;;;;5094185;27;20048;-72
2022/03/13 09:24:11;;;;;;;17.33;13.00;;;10.20;55.10;;;;;;5070514;27;20046;-72
2022/03/13 09:26:39;;;;;;;18.00;13.18;;;10.40;54.40;;;;;;5049020;28;20047;-72
2022/03/13 09:29:08;;;;;;;19.48;13.60;;;10.60;53.60;;;;;;5102101;27;20039;-72
2022/03/13 09:31:34;;;;;;;18.23;12.90;;;10.90;53.50;;;;;;5078459;28;20078;-72
2022/03/13 09:34:00;;;;;;;19.55;13.77;;;11.20;53.40;;;;;;5093229;28;20624;-72
2022/03/13 09:36:26;;;;;;;21.02;12.82;;;11.30;52.10;;;;;;5083471;28;20048;-72
2022/03/13 09:38:52;;;;;;;18.10;13.37;;;11.50;52.70;;;;;;5057333;28;20499;-72
2022/03/13 09:41:19;;;;;;;16.98;12.25;;;11.60;51.20;;;;;;5124354;27;20040;-72
2022/03/13 09:43:45;;;;;;;19.10;12.77;;;11.70;51.60;;;;;;5104480;27;20063;-72
2022/03/13 09:46:12;;;;;;;19.95;13.77;;;11.80;51.00;;;;;;5118384;27;20044;-72
2022/03/13 09:48:38;;;;;;;22.58;14.13;;;11.90;50.20;;;;;;5097209;27;20061;-72
2022/03/13 09:51:06;;;;;;;20.33;13.70;;;12.00;50.60;;;;;;5093778;28;20043;-72
2022/03/13 09:53:33;;;;;;;19.42;13.20;;;11.90;49.10;;;;;;5095490;28;20047;-72
2022/03/13 09:56:01;;;;;;;18.50;13.63;;;11.90;49.20;;;;;;5074889;27;20036;-72
2022/03/13 09:58:29;;;;;;;18.60;13.32;;;11.90;49.40;;;;;;5088600;28;20039;-72
2022/03/13 10:00:56;;;;;;;20.38;13.32;;;11.90;48.60;;;;;;5096304;27;20439;-72
2022/03/13 10:03:22;;;;;;;18.73;13.77;;;11.90;48.90;;;;;;5092333;28;20056;-72
2022/03/13 10:05:49;;;;;;;19.75;14.27;;;12.00;48.90;;;;;;5078894;27;20702;-72
2022/03/13 10:08:17;;;;;;;16.98;13.45;;;12.10;49.40;;;;;;5093414;27;20074;-72
2022/03/13 10:10:48;;;;;;;18.08;13.20;;;12.10;47.60;;;;;;5121661;27;20136;-72
2022/03/13 10:13:32;;;;;;;15.82;12.93;;;12.20;48.90;;;;;;5090485;28;20676;-72
2022/03/13 10:15:58;;;;;;;18.70;13.43;;;12.30;48.30;;;;;;5099067;27;20483;-72
2022/03/13 10:18:25;;;;;;;16.77;12.63;;;12.30;48.70;;;;;;5094930;27;20104;-72
2022/03/13 10:20:52;;;;;;;18.55;13.00;;;12.50;49.00;;;;;;5128951;27;20135;-72
2022/03/13 10:23:22;;;;;;;20.38;13.65;;;12.60;49.20;;;;;;5054794;27;20046;-72
2022/03/13 10:25:52;;;;;;;18.48;13.57;;;12.70;49.10;;;;;;5078785;28;20039;-72
2022/03/13 10:28:30;;;;;;;17.13;13.05;;;12.80;49.80;;;;;;5103939;27;20846;-72
2022/03/13 10:30:58;;;;;;;18.58;13.30;;;12.90;48.50;;;;;;5089172;27;20120;-72
2022/03/13 10:33:47;;;;;;;18.40;13.80;;;13.00;48.90;;;;;;5121228;27;20047;-72
2022/03/13 10:36:44;;;;;;;21.30;14.17;;;13.00;48.00;;;;;;5081076;28;20767;-72
2022/03/13 10:39:17;;;;;;;17.90;13.33;;;13.10;48.90;;;;;;5108813;27;20273;-72
2022/03/13 10:41:45;;;;;;;18.40;13.93;;;13.20;49.20;;;;;;5093681;27;20280;-72
2022/03/13 10:44:13;;;;;;;19.40;13.93;;;13.50;48.90;;;;;;5080043;28;20277;-72
2022/03/13 10:46:40;;;;;;;18.33;13.97;;;13.70;48.60;;;;;;5088287;28;20770;-72
2022/03/13 10:49:08;;;;;;;20.67;14.60;;;13.90;48.20;;;;;;5075668;28;20293;-72
2022/03/13 10:51:48;;;;;;;18.97;14.10;;;14.00;48.10;;;;;;5107606;27;21066;-72
2022/03/13 10:54:28;;;;;;;18.10;13.90;;;14.00;47.30;;;;;;5131127;27;20286;-72
2022/03/13 10:57:07;;;;;;;20.03;14.37;;;14.00;47.90;;;;;;5091181;27;20388;-72
2022/03/13 10:59:34;;;;;;;18.17;13.90;;;14.00;47.80;;;;;;5098564;28;20698;-72
2022/03/13 11:02:30;;;;;;;19.57;13.87;;;14.10;48.50;;;;;;5075673;28;20298;-72
2022/03/13 11:04:57;;;;;;;19.40;13.83;;;14.10;47.60;;;;;;5110987;27;20281;-72
2022/03/13 11:07:25;;;;;;;22.17;14.23;;;14.00;48.30;;;;;;5081824;28;20387;-72
2022/03/13 11:09:51;;;;;;;21.30;14.77;;;13.90;48.60;;;;;;5112082;27;20646;-72
2022/03/13 11:12:23;;;;;;;21.33;15.00;;;13.70;48.50;;;;;;5070512;28;20720;-72
2022/03/13 11:14:55;;;;;;;19.97;13.67;;;13.70;49.20;;;;;;5078838;28;20792;-72
2022/03/13 11:17:22;;;;;;;17.80;14.13;;;13.60;49.40;;;;;;5092007;27;20309;-72
2022/03/13 11:19:51;;;;;;;20.90;14.87;;;13.60;49.90;;;;;;5091471;27;20770;-72
2022/03/13 11:22:20;;;;;;;19.47;14.13;;;13.60;49.60;;;;;;5131924;27;20289;-72
2022/03/13 11:24:48;;;;;;;22.87;15.17;;;13.70;50.20;;;;;;5073917;27;20325;-72
2022/03/13 11:27:15;;;;;;;18.47;14.53;;;13.80;50.60;;;;;;5081280;28;20289;-72
2022/03/13 11:29:46;;;;;;;21.53;14.57;;;14.10;50.20;;;;;;5113124;27;20281;-72
2022/03/13 11:32:45;;;;;;;18.87;14.30;;;14.40;50.20;;;;;;5098742;28;20285;-72
2022/03/13 11:35:13;;;;;;;18.17;13.77;;;14.90;49.40;;;;;;5098420;28;20296;-72
2022/03/13 11:37:51;;;;;;;19.23;13.70;;;15.00;48.00;;;;;;5110465;27;20306;-72
2022/03/13 11:40:47;;;;;;;21.17;15.13;;;15.20;48.00;;;;;;5090217;28;20330;-72
2022/03/13 11:43:15;;;;;;;20.77;14.53;;;15.20;47.40;;;;;;5115803;27;20281;-72
2022/03/13 11:46:01;;;;;;;17.53;14.07;;;15.10;47.00;;;;;;5099768;28;20364;-72
2022/03/13 11:48:32;;;;;;;17.13;13.57;;;14.90;47.50;;;;;;5103504;27;20320;-72
2022/03/13 11:50:59;;;;;;;19.57;13.80;;;14.90;48.20;;;;;;5076004;28;20629;-72
2022/03/13 11:53:27;;;;;;;20.90;14.70;;;14.90;47.30;;;;;;5093697;28;20285;-72
2022/03/13 11:56:39;;;;;;;17.90;13.83;;;14.90;48.20;;;;;;5079195;27;20300;-72
2022/03/13 11:59:19;;;;;;;18.57;13.97;;;14.80;47.70;;;;;;5081555;27;20400;-72
2022/03/13 12:01:46;;;;;;;17.13;13.60;;;14.80;48.80;;;;;;5111613;27;20773;-72
2022/03/13 12:04:13;;;;;;;18.30;13.63;;;14.90;48.90;;;;;;5101691;27;20293;-72
2022/03/13 12:06:44;;;;;;;18.97;14.03;;;14.90;48.60;;;;;;5104285;27;20724;-72
2022/03/13 12:09:17;;;;;;;17.90;13.83;;;15.00;48.00;;;;;;5093014;28;20301;-72
2022/03/13 12:11:46;;;;;;;16.70;13.43;;;15.00;48.30;;;;;;5091889;28;20289;-72
2022/03/13 12:14:13;;;;;;;15.73;12.97;;;15.10;48.70;;;;;;5078667;28;21169;-72
2022/03/13 12:16:42;;;;;;;15.83;13.23;;;15.30;48.20;;;;;;5084629;28;20319;-72
2022/03/13 12:19:10;;;;;;;17.43;13.17;;;15.50;47.70;;;;;;5088826;28;20346;-72
2022/03/13 12:21:37;;;;;;;17.83;13.13;;;15.70;47.50;;;;;;5099625;28;20288;-72
2022/03/13 12:24:20;;;;;;;16.27;12.60;;;15.80;46.50;;;;;;5077696;28;20285;-71
2022/03/13 12:26:49;;;;;;;14.87;12.37;;;15.80;46.40;;;;;;5085464;28;20294;-72
2022/03/13 12:29:17;;;;;;;16.00;12.80;;;15.80;46.90;;;;;;5063219;28;20319;-72
2022/03/13 12:31:51;;;;;;;15.50;12.10;;;15.80;46.30;;;;;;5072425;28;20281;-72
2022/03/13 12:34:32;;;;;;;15.33;12.17;;;15.80;46.20;;;;;;5089335;28;20354;-72
2022/03/13 12:37:01;;;;;;;16.80;12.13;;;15.90;46.20;;;;;;5085924;28;20363;-72